Twin Springs, Nevada Weather observations

Data are for observation ending at time listed.
 Day   Time    Ave.   Ave.  Ave.  Vector   Max.   Stn.    Total    Solar   Ave.  
  of    of     Air    Rel.  Wind   Wind    Wind   Baro.  Precip.   Rad.    Soil  
Year   Day     Temp.  Hum.  Speed  Dir.    Gust   Pres.                    Temp. 
2016   (PST)    F      %     mph   deg.    mph     mb.     in.     W/m2     F   
------------------------------------------------------------------------------
 181    1:00   70.4    56    8.2   339     15.7    847     0.02       0    85.2
 181    2:00   70.7    52    4.9   315     12.3    848     0.00       0    84.1
 181    3:00   68.4    60    4.0   326      8.7    848     0.00       0    82.9
 181    4:00   67.2    63    4.2   354     11.7    847     0.00       0    81.8
 181    5:00   67.2    63    3.7   331      6.4    847     0.00       3    80.9
 181    6:00   66.2    63    4.7   325      9.3    847     0.00      24    80.1
 181    7:00   70.4    52    6.6     6     11.1    847     0.00     311    79.3
 181    8:00   78.0    37    5.0   340      8.2    847     0.00     583    78.7
 181    9:00   85.5    24    5.4   358     11.4    847     0.00     824    79.0
 181   10:00   88.5    18    5.7   179     15.7    847     0.00     653    80.5
 181   11:00   88.4    18    7.8   230     25.6    846     0.00     564    82.8
 181   12:00   88.9    16    6.1   191     17.5    846     0.00     566    84.9
 181   13:00   91.1    15    5.4   219     16.5    845     0.00     509    86.5
 181   14:00   88.2    19    7.1   212     31.7    845     0.01     212    87.8
 181   15:00   81.1    31   14.4     2     30.7    845     0.00     242    88.3
 181   16:00   75.4    46   10.7    60     18.7    847     0.03     200    87.5
 181   17:00   76.1    42   10.0    96     25.4    846     0.00      56    86.0
 181   18:00   72.2    55   11.0   127     20.0    846     0.00     114    84.6
 181   19:00   71.2    56    4.9   131     11.9    846     0.00      35    83.2
 181   20:00   75.1    39    7.7   216     21.9    847     0.00       1    82.1
 181   21:00   73.9    38    3.4   269     12.5    847     0.00       0    81.1
 181   22:00   72.0    42    3.2   353      6.6    846     0.00       0    80.1
 181   23:00   69.2    55    2.4   120      4.7    846     0.00       0    79.2
 182    0:00   67.5    61    2.8    86      5.9    845     0.00       0    78.5

Return to Twin Springs, Nevada graphs page.


Western Regional Climate Center,wrcc@dri.edu